Time;durP1;ratioP1;P1;durP2;ratioP2;P2;SDS_P1;SDS_P2;PMS_P1;PMS_P2;Temp;Humidity;BMP_temperature;BMP_pressure;BME280_temperature;BME280_humidity;BME280_pressure;Samples;Min_cycle;Max_cycle;Signal;HPM_P1;HPM_P2
2022/07/12 00:02:15;;;;;;;3.40;2.80;;;16.40;99.90;;;;;;5051317;28;20111;-56
2022/07/12 00:04:41;;;;;;;3.03;2.72;;;16.50;99.90;;;;;;5055064;28;20471;-56
2022/07/12 00:07:08;;;;;;;3.17;2.60;;;16.40;99.90;;;;;;5055163;28;20079;-56
2022/07/12 00:09:34;;;;;;;3.67;2.28;;;16.30;99.90;;;;;;5070948;28;20442;-56
2022/07/12 00:12:00;;;;;;;4.70;2.70;;;16.30;99.90;;;;;;5055011;28;20128;-57
2022/07/12 00:14:26;;;;;;;3.15;2.85;;;16.30;99.90;;;;;;5053903;28;20120;-56
2022/07/12 00:16:52;;;;;;;3.38;3.08;;;16.30;99.90;;;;;;5055372;28;20531;-55
2022/07/12 00:19:18;;;;;;;2.58;2.38;;;16.40;99.90;;;;;;5069771;28;20135;-56
2022/07/12 00:21:46;;;;;;;2.65;2.42;;;16.40;99.90;;;;;;5054371;28;20171;-57
2022/07/12 00:24:13;;;;;;;2.55;2.35;;;16.40;99.90;;;;;;5055001;28;20048;-56
2022/07/12 00:26:39;;;;;;;7.55;3.25;;;16.30;99.90;;;;;;5054347;28;20040;-56
2022/07/12 00:29:06;;;;;;;3.53;3.20;;;16.40;99.90;;;;;;5055089;28;20055;-56
2022/07/12 00:31:44;;;;;;;3.67;3.00;;;16.30;99.90;;;;;;5054897;28;20051;-56
2022/07/12 00:34:10;;;;;;;5.80;3.22;;;16.30;99.90;;;;;;5054868;28;20127;-56
2022/07/12 00:36:36;;;;;;;4.47;4.07;;;16.30;99.90;;;;;;5054740;28;20123;-55
2022/07/12 00:39:03;;;;;;;5.72;3.42;;;16.30;99.90;;;;;;5054662;28;20033;-56
2022/07/12 00:41:30;;;;;;;4.20;3.80;;;16.40;99.90;;;;;;5054462;28;20442;-56
2022/07/12 00:43:56;;;;;;;3.03;2.72;;;16.40;99.90;;;;;;5054847;28;20080;-56
2022/07/12 00:46:24;;;;;;;4.18;3.70;;;16.30;99.90;;;;;;5054511;28;20507;-56
2022/07/12 00:48:51;;;;;;;3.50;3.20;;;16.30;99.90;;;;;;5054624;28;20045;-56
2022/07/12 00:51:18;;;;;;;3.75;2.85;;;16.20;99.90;;;;;;5054624;28;20040;-56
2022/07/12 00:53:44;;;;;;;4.53;2.83;;;16.30;99.90;;;;;;5054611;28;20074;-57
2022/07/12 00:56:13;;;;;;;4.60;2.72;;;16.20;99.90;;;;;;5054382;28;20040;-56
2022/07/12 00:58:41;;;;;;;4.05;2.83;;;16.20;99.90;;;;;;5054154;28;20041;-56
2022/07/12 01:01:08;;;;;;;3.75;2.60;;;16.20;99.90;;;;;;5036687;28;20049;-58
2022/07/12 01:03:35;;;;;;;4.78;3.03;;;16.20;99.90;;;;;;5054515;28;20048;-56
2022/07/12 01:06:01;;;;;;;3.20;2.90;;;16.30;99.90;;;;;;5054441;28;20472;-57
2022/07/12 01:08:30;;;;;;;2.97;2.67;;;16.20;99.90;;;;;;5054151;28;20043;-55
2022/07/12 01:10:56;;;;;;;4.93;3.67;;;16.20;99.90;;;;;;5054246;28;20068;-57
2022/07/12 01:13:23;;;;;;;3.60;3.30;;;16.00;99.90;;;;;;5052651;28;20041;-56
2022/07/12 01:15:51;;;;;;;3.72;3.42;;;16.00;99.90;;;;;;5069127;28;20048;-58
2022/07/12 01:18:18;;;;;;;3.35;3.05;;;16.10;99.90;;;;;;5053880;28;20063;-57
2022/07/12 01:20:45;;;;;;;6.20;3.53;;;16.10;99.90;;;;;;5036604;28;20089;-56
2022/07/12 01:23:14;;;;;;;2.97;2.75;;;16.00;99.90;;;;;;5053522;28;20114;-57
2022/07/12 01:25:40;;;;;;;7.68;2.92;;;16.10;99.90;;;;;;5052336;28;20080;-57
2022/07/12 01:28:06;;;;;;;4.82;2.90;;;16.00;99.90;;;;;;5053820;28;20045;-57
2022/07/12 01:30:32;;;;;;;3.40;2.80;;;16.20;99.90;;;;;;5053756;28;20052;-57
2022/07/12 01:32:59;;;;;;;3.28;2.97;;;16.00;99.90;;;;;;5051895;28;20056;-57
2022/07/12 01:35:26;;;;;;;3.45;2.92;;;16.00;99.90;;;;;;5053549;28;20055;-56
2022/07/12 01:37:55;;;;;;;3.60;3.22;;;16.10;99.90;;;;;;5053569;28;20115;-56
2022/07/12 01:40:23;;;;;;;4.30;3.50;;;16.10;99.90;;;;;;5053547;28;20051;-56
2022/07/12 01:42:51;;;;;;;4.07;3.65;;;16.10;99.90;;;;;;5053669;28;20039;-56
2022/07/12 01:45:18;;;;;;;6.20;3.80;;;16.00;99.90;;;;;;5053382;28;20055;-56
2022/07/12 01:47:44;;;;;;;4.88;4.30;;;16.10;99.90;;;;;;5053410;28;20040;-55
2022/07/12 01:50:11;;;;;;;4.70;4.25;;;16.00;99.90;;;;;;5067715;28;20041;-57
2022/07/12 01:52:40;;;;;;;3.88;3.45;;;15.90;99.90;;;;;;5052249;28;20393;-57
2022/07/12 01:55:06;;;;;;;6.40;4.10;;;15.90;99.90;;;;;;5053708;28;20044;-57
2022/07/12 01:57:34;;;;;;;6.35;3.83;;;16.00;99.90;;;;;;5053147;28;20442;-57
2022/07/12 02:00:05;;;;;;;3.20;2.90;;;15.90;99.90;;;;;;5053502;28;20037;-57
2022/07/12 02:02:31;;;;;;;4.13;3.40;;;16.00;99.90;;;;;;5053080;28;20052;-57
2022/07/12 02:05:00;;;;;;;3.95;3.65;;;16.00;99.90;;;;;;5052943;28;20395;-56
2022/07/12 02:07:27;;;;;;;3.50;3.20;;;16.10;99.90;;;;;;5052257;28;20057;-57
2022/07/12 02:09:54;;;;;;;4.32;3.92;;;15.90;99.90;;;;;;5052904;28;20076;-57
2022/07/12 02:12:21;;;;;;;4.10;3.70;;;15.90;99.90;;;;;;5051731;28;20095;-57
2022/07/12 02:14:47;;;;;;;3.83;3.53;;;16.00;99.90;;;;;;5051791;28;20506;-57
2022/07/12 02:17:14;;;;;;;4.55;3.50;;;16.10;99.90;;;;;;5052811;28;20044;-57
2022/07/12 02:19:40;;;;;;;4.82;4.13;;;16.00;99.90;;;;;;5051471;28;20049;-57
2022/07/12 02:22:07;;;;;;;4.40;4.00;;;16.00;99.90;;;;;;5068018;28;20106;-57
2022/07/12 02:24:33;;;;;;;4.03;3.72;;;16.00;99.90;;;;;;5052530;28;20029;-57
2022/07/12 02:27:00;;;;;;;4.22;3.72;;;15.90;99.90;;;;;;5067387;28;20106;-57
2022/07/12 02:29:26;;;;;;;8.77;4.82;;;15.90;99.90;;;;;;5068361;28;20114;-57
2022/07/12 02:31:54;;;;;;;5.07;4.55;;;16.00;99.90;;;;;;5067946;28;20182;-56
2022/07/12 02:34:42;;;;;;;6.50;4.07;;;15.90;99.90;;;;;;5052373;28;20122;-57
2022/07/12 02:37:08;;;;;;;5.13;4.38;;;15.80;99.90;;;;;;5052527;28;20499;-56
2022/07/12 02:39:35;;;;;;;4.63;4.22;;;15.80;99.90;;;;;;5052705;28;20578;-56
2022/07/12 02:42:02;;;;;;;7.00;5.20;;;15.80;99.90;;;;;;5052545;28;20129;-56
2022/07/12 02:44:28;;;;;;;5.15;4.70;;;15.70;99.90;;;;;;5052467;28;20246;-56
2022/07/12 02:46:54;;;;;;;5.55;4.72;;;15.80;99.90;;;;;;5052882;28;20365;-56
2022/07/12 02:49:21;;;;;;;5.80;5.30;;;15.70;99.90;;;;;;5052060;28;20048;-56
2022/07/12 02:51:47;;;;;;;5.65;4.53;;;15.60;99.90;;;;;;5052043;28;20044;-56
2022/07/12 02:54:19;;;;;;;5.13;4.63;;;15.70;99.90;;;;;;5051041;28;20183;-55
2022/07/12 02:56:48;;;;;;;5.63;5.10;;;15.60;99.90;;;;;;5052153;28;20041;-55
2022/07/12 02:59:15;;;;;;;;;;;15.70;99.90;;;;;;5052448;28;20119;-56
2022/07/12 03:01:43;;;;;;;5.53;5.03;;;15.60;99.90;;;;;;5051869;28;19920;-56
2022/07/12 03:04:10;;;;;;;6.22;5.38;;;15.60;99.90;;;;;;5051986;28;20391;-56
2022/07/12 03:06:43;;;;;;;;;;;15.60;99.90;;;;;;5052239;28;20044;-57
2022/07/12 03:09:09;;;;;;;5.63;5.13;;;15.70;99.90;;;;;;5052175;28;19916;-56
2022/07/12 03:11:43;;;;;;;6.07;5.47;;;15.60;99.90;;;;;;5052154;28;20037;-56
2022/07/12 03:14:10;;;;;;;6.15;5.55;;;15.50;99.90;;;;;;5051906;28;20041;-57
2022/07/12 03:16:38;;;;;;;6.82;6.13;;;15.70;99.90;;;;;;5066752;28;20048;-56
2022/07/12 03:19:12;;;;;;;6.30;5.70;;;15.50;99.90;;;;;;5051745;28;20557;-57
2022/07/12 03:21:40;;;;;;;9.82;5.63;;;15.50;99.90;;;;;;5051432;28;20049;-57
2022/07/12 03:24:12;;;;;;;8.52;7.55;;;15.60;99.90;;;;;;5050294;28;20045;-57
2022/07/12 03:26:44;;;;;;;7.53;6.55;;;15.40;99.90;;;;;;5051620;28;20087;-56
2022/07/12 03:29:15;;;;;;;11.02;8.18;;;15.60;99.90;;;;;;5051610;28;20039;-57
2022/07/12 03:31:45;;;;;;;12.65;8.65;;;15.50;99.90;;;;;;5051863;28;20048;-57
2022/07/12 03:34:15;;;;;;;9.85;8.70;;;15.40;99.90;;;;;;5051840;28;20048;-56
2022/07/12 03:36:54;;;;;;;13.82;8.90;;;15.40;99.90;;;;;;5052119;28;20048;-57
2022/07/12 03:39:29;;;;;;;10.05;7.85;;;15.60;99.90;;;;;;5055854;28;20601;-57
2022/07/12 03:42:03;;;;;;;9.45;8.55;;;15.60;99.90;;;;;;5055529;28;20483;-57
2022/07/12 03:44:33;;;;;;;9.68;8.10;;;15.50;99.90;;;;;;5055679;28;20033;-57
2022/07/12 03:47:02;;;;;;;8.85;7.80;;;15.50;99.90;;;;;;5055485;28;20033;-57
2022/07/12 03:49:33;;;;;;;39.13;8.77;;;15.40;99.90;;;;;;5056461;28;20085;-55
2022/07/12 03:52:01;;;;;;;64.00;9.70;;;15.40;99.90;;;;;;5055383;28;20124;-56
2022/07/12 03:54:31;;;;;;;19.02;7.18;;;15.40;99.90;;;;;;5070194;28;20637;-56
2022/07/12 03:57:15;;;;;;;8.30;7.47;;;15.40;99.90;;;;;;5055424;28;20098;-56
2022/07/12 03:59:46;;;;;;;12.52;8.95;;;15.30;99.90;;;;;;5055090;28;20044;-56
2022/07/12 04:02:16;;;;;;;9.25;7.50;;;15.40;99.90;;;;;;5055378;28;20041;-55
2022/07/12 04:04:45;;;;;;;8.23;6.53;;;15.40;99.90;;;;;;5055019;28;20033;-56
2022/07/12 04:07:16;;;;;;;6.43;5.82;;;15.40;99.90;;;;;;5055124;28;20059;-57
2022/07/12 04:09:42;;;;;;;7.25;6.25;;;15.40;99.90;;;;;;5055151;28;20407;-57
2022/07/12 04:12:11;;;;;;;9.25;7.18;;;15.50;99.90;;;;;;5055042;28;20053;-56
2022/07/12 04:14:42;;;;;;;6.85;6.25;;;15.50;99.90;;;;;;5055178;28;20423;-56
2022/07/12 04:17:16;;;;;;;7.85;6.80;;;15.50;99.90;;;;;;5054925;28;20387;-56
2022/07/12 04:19:46;;;;;;;71.45;7.70;;;15.40;99.90;;;;;;5054925;28;20037;-56
2022/07/12 04:22:13;;;;;;;;;;;15.30;99.90;;;;;;5054900;28;20518;-56
2022/07/12 04:24:43;;;;;;;5.55;5.05;;;15.30;99.90;;;;;;5054958;28;19916;-58
2022/07/12 04:27:10;;;;;;;8.63;6.68;;;15.20;99.90;;;;;;5054935;28;20033;-57
2022/07/12 04:29:39;;;;;;;56.13;6.32;;;15.40;99.90;;;;;;5055008;28;20094;-57
2022/07/12 04:32:14;;;;;;;6.55;5.00;;;15.10;99.90;;;;;;5054756;28;20037;-56
2022/07/12 04:34:48;;;;;;;7.03;5.60;;;15.20;99.90;;;;;;5053905;28;20420;-56
2022/07/12 04:40:57;;;;;;;25.48;6.93;;;15.20;99.90;;;;;;5056611;28;20151;-57
2022/07/12 04:43:25;;;;;;;22.33;7.47;;;15.40;99.90;;;;;;5071308;28;20037;-57
2022/07/12 04:45:51;;;;;;;16.60;7.53;;;15.30;99.90;;;;;;5073783;28;20028;-56
2022/07/12 04:48:17;;;;;;;11.13;6.60;;;15.50;99.90;;;;;;5072971;28;20040;-56
2022/07/12 04:50:44;;;;;;;10.00;5.72;;;15.50;99.90;;;;;;5074100;28;20044;-56
2022/07/12 04:53:12;;;;;;;11.57;6.03;;;15.30;99.90;;;;;;5072929;28;20040;-55
2022/07/12 04:55:38;;;;;;;7.03;5.30;;;15.40;99.90;;;;;;5072752;28;20045;-55
2022/07/12 04:58:04;;;;;;;6.70;5.72;;;15.50;99.90;;;;;;5074482;28;20055;-55
2022/07/12 05:00:31;;;;;;;13.20;5.53;;;15.30;99.90;;;;;;5073966;28;20121;-55
2022/07/12 05:02:57;;;;;;;37.33;6.70;;;15.40;99.90;;;;;;5074339;28;20114;-55
2022/07/12 05:05:26;;;;;;;16.25;6.10;;;15.40;99.90;;;;;;5074138;28;20036;-56
2022/07/12 05:07:54;;;;;;;6.75;5.30;;;15.40;99.90;;;;;;5074260;28;20157;-56
2022/07/12 05:10:22;;;;;;;6.65;6.05;;;15.20;99.90;;;;;;5074071;28;20036;-55
2022/07/12 05:12:48;;;;;;;9.70;5.80;;;15.40;99.90;;;;;;5074290;28;20075;-56
2022/07/12 05:15:14;;;;;;;8.35;6.05;;;15.30;99.90;;;;;;5074131;28;20486;-57
2022/07/12 05:17:41;;;;;;;8.23;6.35;;;15.50;99.90;;;;;;5072737;28;20051;-55
2022/07/12 05:20:08;;;;;;;6.95;6.20;;;15.50;99.90;;;;;;5073929;28;20060;-55
2022/07/12 05:22:36;;;;;;;6.45;5.80;;;15.30;99.90;;;;;;5073542;28;20406;-55
2022/07/12 05:25:04;;;;;;;6.95;5.68;;;15.40;99.90;;;;;;5073818;28;20032;-56
2022/07/12 05:27:34;;;;;;;6.30;5.43;;;15.40;99.90;;;;;;5073625;28;20041;-55
2022/07/12 05:30:04;;;;;;;5.72;4.88;;;15.50;99.90;;;;;;5074106;28;20439;-56
2022/07/12 05:32:31;;;;;;;7.60;5.82;;;15.50;99.90;;;;;;5073650;28;20040;-56
2022/07/12 05:35:00;;;;;;;7.30;5.88;;;15.60;99.90;;;;;;5073775;28;20040;-56
2022/07/12 05:37:26;;;;;;;6.18;5.25;;;15.50;99.90;;;;;;5073391;28;20076;-56
2022/07/12 05:40:32;;;;;;;6.10;5.05;;;15.60;99.90;;;;;;5073789;28;20033;-57
2022/07/12 05:42:59;;;;;;;6.03;5.38;;;15.70;99.90;;;;;;5072191;28;20161;-57
2022/07/12 05:45:26;;;;;;;7.70;5.70;;;15.80;99.90;;;;;;5073606;28;20589;-57
2022/07/12 05:47:57;;;;;;;7.22;6.35;;;15.70;99.90;;;;;;5073363;28;20521;-56
2022/07/12 05:50:28;;;;;;;7.35;6.15;;;15.70;99.90;;;;;;5073200;28;20119;-57
2022/07/12 05:55:46;;;;;;;7.35;6.10;;;15.90;99.90;;;;;;5073033;28;20047;-57
2022/07/12 05:58:14;;;;;;;7.63;6.53;;;16.00;99.90;;;;;;5073063;28;20475;-57
2022/07/12 06:01:14;;;;;;;6.80;6.10;;;15.90;99.90;;;;;;5069608;28;20052;-57
2022/07/12 06:03:43;;;;;;;6.60;5.30;;;16.00;99.90;;;;;;5073077;28;20048;-57
2022/07/12 06:06:14;;;;;;;5.57;4.85;;;16.10;99.90;;;;;;5072915;28;20044;-57
2022/07/12 06:08:43;;;;;;;7.32;5.47;;;16.10;99.90;;;;;;5072941;28;20123;-56
2022/07/12 06:11:09;;;;;;;5.97;5.20;;;16.10;99.90;;;;;;5072745;28;20048;-57
2022/07/12 06:13:44;;;;;;;5.18;4.38;;;16.30;99.90;;;;;;5072892;28;20482;-57
2022/07/12 06:16:13;;;;;;;4.90;4.50;;;16.30;99.90;;;;;;5071279;28;20048;-57
2022/07/12 06:18:39;;;;;;;5.35;4.43;;;16.40;99.90;;;;;;5072842;28;20093;-56
2022/07/12 06:21:06;;;;;;;4.40;4.00;;;16.50;99.90;;;;;;5072540;28;20387;-55
2022/07/12 06:23:33;;;;;;;4.65;4.25;;;16.60;99.90;;;;;;5072847;28;20112;-55
2022/07/12 06:26:04;;;;;;;4.97;4.47;;;16.60;99.90;;;;;;5072816;28;20063;-56
2022/07/12 06:28:33;;;;;;;5.28;4.32;;;16.70;99.90;;;;;;5072860;28;20383;-56
2022/07/12 06:31:03;;;;;;;4.43;3.95;;;16.80;99.90;;;;;;5072289;28;20044;-56
2022/07/12 06:33:35;;;;;;;4.18;3.78;;;16.90;99.90;;;;;;5071713;28;20052;-56
2022/07/12 06:36:08;;;;;;;4.35;3.65;;;17.00;99.90;;;;;;5072477;28;20127;-56
2022/07/12 06:38:41;;;;;;;4.13;3.63;;;17.10;99.90;;;;;;5072511;28;20097;-56
2022/07/12 06:41:08;;;;;;;5.68;3.65;;;17.10;99.90;;;;;;5072042;28;20048;-57
2022/07/12 06:43:37;;;;;;;4.35;3.95;;;17.40;99.90;;;;;;5071111;28;20093;-55
2022/07/12 06:46:02;;;;;;;;;;;17.40;99.90;;;;;;5072012;28;20028;-56
2022/07/12 06:48:28;;;;;;;4.45;3.97;;;17.50;99.90;;;;;;5072268;28;20283;-56
2022/07/12 06:50:54;;;;;;;4.43;3.90;;;17.60;99.90;;;;;;5070622;28;20045;-56
2022/07/12 06:53:20;;;;;;;3.50;3.13;;;17.70;99.90;;;;;;5072515;28;20123;-57
2022/07/12 06:55:45;;;;;;;3.55;3.25;;;18.00;99.90;;;;;;5072821;28;20135;-57
2022/07/12 06:58:11;;;;;;;3.45;3.15;;;18.10;99.90;;;;;;5072144;28;20040;-57
2022/07/12 07:00:37;;;;;;;4.93;3.00;;;18.10;99.90;;;;;;5072230;28;20097;-57
2022/07/12 07:03:06;;;;;;;4.05;3.40;;;18.30;99.90;;;;;;5072165;28;20150;-58
2022/07/12 07:05:32;;;;;;;3.47;3.17;;;18.50;99.90;;;;;;5072553;28;20414;-58
2022/07/12 07:07:58;;;;;;;3.85;3.20;;;18.80;99.90;;;;;;5072225;28;20041;-58
2022/07/12 07:10:24;;;;;;;3.25;2.78;;;19.10;99.90;;;;;;5071755;28;20039;-57
2022/07/12 07:12:49;;;;;;;3.15;2.85;;;19.40;99.90;;;;;;5071613;28;20032;-58
2022/07/12 07:15:16;;;;;;;2.53;2.33;;;19.70;99.90;;;;;;5070769;28;20120;-57
2022/07/12 07:17:42;;;;;;;2.47;2.28;;;19.90;99.90;;;;;;5071681;28;20037;-57
2022/07/12 07:20:10;;;;;;;2.53;2.33;;;20.30;99.90;;;;;;5070509;28;20048;-57
2022/07/12 07:22:37;;;;;;;;;;;20.50;99.90;;;;;;5072049;28;20133;-58
2022/07/12 07:25:03;;;;;;;2.78;2.58;;;20.80;99.90;;;;;;5071764;28;19960;-57
2022/07/12 07:27:29;;;;;;;2.95;2.20;;;21.00;99.90;;;;;;5071687;28;20040;-57
2022/07/12 07:32:48;;;;;;;2.10;1.90;;;21.70;99.90;;;;;;5049448;28;20045;-57
2022/07/12 07:35:14;;;;;;;2.45;2.10;;;21.90;99.90;;;;;;5049499;28;20048;-57
2022/07/12 07:37:40;;;;;;;4.30;2.28;;;21.90;99.90;;;;;;5049456;28;20049;-57
2022/07/12 07:40:06;;;;;;;2.38;2.17;;;22.10;99.90;;;;;;5049545;28;20172;-57
2022/07/12 07:42:32;;;;;;;3.55;1.90;;;22.30;99.90;;;;;;5049458;28;20150;-58
2022/07/12 07:44:58;;;;;;;4.90;2.20;;;22.30;99.90;;;;;;5049353;28;20136;-58
2022/07/12 07:47:24;;;;;;;2.90;2.15;;;22.50;99.90;;;;;;5049563;28;20052;-58
2022/07/12 07:49:54;;;;;;;2.05;1.85;;;22.40;99.90;;;;;;5049345;28;20576;-58
2022/07/12 07:52:20;;;;;;;3.85;2.20;;;22.80;99.90;;;;;;5049326;28;20049;-58
2022/07/12 07:54:46;;;;;;;2.22;1.90;;;22.80;99.90;;;;;;5049113;28;20041;-58
2022/07/12 07:57:12;;;;;;;2.17;1.83;;;23.00;99.90;;;;;;5049271;28;20057;-58
2022/07/12 07:59:38;;;;;;;2.00;1.80;;;22.70;99.90;;;;;;5049268;28;20402;-58
2022/07/12 08:02:04;;;;;;;13.65;2.35;;;22.90;99.90;;;;;;5049146;28;20037;-58
2022/07/12 08:04:31;;;;;;;6.25;2.42;;;22.80;99.90;;;;;;5049221;28;20439;-57
2022/07/12 08:06:59;;;;;;;2.38;1.90;;;22.80;99.90;;;;;;5049245;28;20531;-58
2022/07/12 08:09:28;;;;;;;4.03;1.88;;;23.20;99.90;;;;;;5058741;28;20041;-57
2022/07/12 08:12:00;;;;;;;1.88;1.48;;;23.70;99.90;;;;;;5071678;28;20115;-56
2022/07/12 08:14:31;;;;;;;3.85;1.60;;;24.50;99.90;;;;;;5071482;28;20113;-56
2022/07/12 08:17:04;;;;;;;4.25;1.50;;;24.40;99.90;;;;;;5071425;28;20047;-57
2022/07/12 08:19:36;;;;;;;4.93;1.80;;;24.90;99.90;;;;;;5071343;28;20040;-57
2022/07/12 08:22:14;;;;;;;2.85;1.77;;;25.20;99.90;;;;;;5070769;28;20053;-57
2022/07/12 08:32:05;;;;;;;2.33;1.50;;;25.00;99.90;;;;;;5074701;28;20055;-57
2022/07/12 08:34:31;;;;;;;2.08;1.42;;;24.90;99.90;;;;;;5074647;28;20436;-57
2022/07/12 08:36:56;;;;;;;4.60;1.60;;;25.00;99.90;;;;;;5075036;28;20127;-57
2022/07/12 08:39:22;;;;;;;3.15;1.70;;;25.00;99.90;;;;;;5073554;28;20044;-56
2022/07/12 08:41:47;;;;;;;1.45;1.35;;;25.00;99.90;;;;;;5075067;28;20051;-57
2022/07/12 08:44:13;;;;;;;2.35;1.90;;;25.20;99.90;;;;;;5074570;28;20068;-58
2022/07/12 08:46:39;;;;;;;3.00;1.40;;;25.40;99.90;;;;;;5074479;28;20123;-56
2022/07/12 08:49:09;;;;;;;3.05;1.33;;;25.70;99.90;;;;;;5074445;28;20436;-57
2022/07/12 08:51:34;;;;;;;1.75;1.55;;;26.00;99.90;;;;;;5074553;28;20051;-57
2022/07/12 08:54:07;;;;;;;1.73;1.58;;;25.80;99.90;;;;;;5073942;28;20041;-58
2022/07/12 08:56:34;;;;;;;1.55;1.40;;;26.00;99.90;;;;;;5074608;28;20044;-58
2022/07/12 08:59:12;;;;;;;3.58;1.67;;;26.30;99.90;;;;;;5074474;28;20051;-58
2022/07/12 09:01:50;;;;;;;4.10;1.53;;;26.60;99.90;;;;;;5074161;28;20040;-57
2022/07/12 09:04:18;;;;;;;6.03;1.70;;;27.00;99.90;;;;;;5074309;28;20036;-56
2022/07/12 09:06:44;;;;;;;3.97;1.52;;;27.10;99.90;;;;;;5074087;28;20490;-57
2022/07/12 09:09:10;;;;;;;3.95;1.75;;;27.40;99.90;;;;;;5074314;28;20032;-57
2022/07/12 09:11:46;;;;;;;2.47;1.77;;;27.30;99.90;;;;;;5074057;28;20047;-57
2022/07/12 09:14:18;;;;;;;4.65;2.00;;;27.20;99.90;;;;;;5074040;28;20090;-57
2022/07/12 09:16:57;;;;;;;2.28;1.40;;;27.00;99.90;;;;;;5074104;28;20049;-57
2022/07/12 09:19:23;;;;;;;2.47;2.15;;;27.10;99.90;;;;;;5074111;28;20040;-57
2022/07/12 09:21:53;;;;;;;2.00;1.50;;;27.10;99.90;;;;;;5073620;28;20507;-57
2022/07/12 09:24:23;;;;;;;4.28;1.52;;;27.70;99.90;;;;;;5073807;28;20453;-57
2022/07/12 09:26:52;;;;;;;4.22;1.65;;;27.50;99.90;;;;;;5073959;28;20033;-56
2022/07/12 09:29:18;;;;;;;4.88;1.80;;;27.40;99.90;;;;;;5073956;28;20040;-56
2022/07/12 09:37:16;;;;;;;1.48;1.38;;;26.80;99.90;;;;;;5073899;28;20040;-57
2022/07/12 09:39:43;;;;;;;3.80;1.25;;;26.70;99.90;;;;;;5072444;28;20047;-57
2022/07/12 09:42:12;;;;;;;3.47;2.00;;;26.70;99.90;;;;;;5073648;28;20063;-57
2022/07/12 09:44:39;;;;;;;2.08;1.30;;;26.70;99.90;;;;;;5073833;28;20173;-57
2022/07/12 09:47:13;;;;;;;1.30;1.20;;;27.50;99.90;;;;;;5073846;28;20036;-58
2022/07/12 09:49:40;;;;;;;1.85;1.50;;;28.10;99.90;;;;;;5073362;28;20060;-59
2022/07/12 09:52:10;;;;;;;2.30;1.70;;;28.30;99.90;;;;;;5073297;28;20482;-57
2022/07/12 09:54:40;;;;;;;2.83;1.80;;;28.50;99.90;;;;;;5073635;28;20076;-58
2022/07/12 09:57:13;;;;;;;5.30;1.85;;;28.80;99.90;;;;;;5073323;28;20040;-59
2022/07/12 09:59:39;;;;;;;2.05;1.65;;;29.20;99.90;;;;;;5071893;28;20044;-58
2022/07/12 10:02:06;;;;;;;3.75;1.55;;;29.40;99.90;;;;;;5072926;28;20406;-59
2022/07/12 10:04:32;;;;;;;6.07;1.33;;;29.30;99.90;;;;;;5071829;28;20040;-56
2022/07/12 10:06:58;;;;;;;1.60;1.15;;;30.30;99.90;;;;;;5073053;28;20032;-57
2022/07/12 10:09:26;;;;;;;2.88;1.10;;;29.90;99.90;;;;;;5073151;28;20502;-57
2022/07/12 10:11:53;;;;;;;3.38;1.48;;;30.10;99.90;;;;;;5072892;28;20040;-57
2022/07/12 10:14:20;;;;;;;3.35;1.20;;;30.00;99.90;;;;;;5072852;28;20120;-57
2022/07/12 10:16:46;;;;;;;0.82;0.73;;;29.90;99.90;;;;;;5072900;28;20045;-58
2022/07/12 10:19:44;;;;;;;1.88;1.30;;;30.50;99.90;;;;;;5072865;28;20042;-57
2022/07/12 10:22:20;;;;;;;2.70;1.05;;;31.10;99.90;;;;;;5050333;28;20121;-57
2022/07/12 10:24:48;;;;;;;1.30;1.20;;;31.10;99.90;;;;;;5050415;28;20076;-58
2022/07/12 10:27:13;;;;;;;0.80;0.80;;;30.90;99.90;;;;;;5034025;28;20123;-57
2022/07/12 10:29:40;;;;;;;1.90;0.65;;;31.00;99.90;;;;;;5049994;28;20140;-58
2022/07/12 10:32:25;;;;;;;0.80;0.75;;;31.20;99.90;;;;;;5049691;28;20533;-58
2022/07/12 10:35:00;;;;;;;1.27;0.57;;;31.70;99.90;;;;;;5050764;28;20778;-59
2022/07/12 10:37:27;;;;;;;1.00;0.60;;;31.40;99.90;;;;;;5050412;28;20117;-58
2022/07/12 10:40:18;;;;;;;0.63;0.52;;;31.20;99.90;;;;;;5050532;28;20037;-58
2022/07/12 10:43:04;;;;;;;2.45;0.50;;;31.30;99.90;;;;;;5050372;28;20434;-57
2022/07/12 10:45:31;;;;;;;0.85;0.63;;;31.40;99.90;;;;;;5050493;28;20081;-57
2022/07/12 10:48:13;;;;;;;0.98;0.60;;;31.70;99.90;;;;;;5045650;28;20045;-57
2022/07/12 10:50:55;;;;;;;0.52;0.40;;;31.70;99.30;;;;;;5030558;28;20614;-57
2022/07/12 10:53:34;;;;;;;1.25;0.68;;;31.70;99.70;;;;;;5030520;28;20091;-57
2022/07/12 10:56:09;;;;;;;1.23;0.82;;;31.60;97.70;;;;;;5045319;28;20147;-57
2022/07/12 10:58:49;;;;;;;1.48;0.50;;;31.30;99.00;;;;;;5047735;28;20537;-57
2022/07/12 11:01:21;;;;;;;0.95;0.50;;;31.30;99.50;;;;;;5051272;28;20045;-57
2022/07/12 11:03:49;;;;;;;0.73;0.73;;;31.30;99.00;;;;;;5070928;28;20133;-57
2022/07/12 11:06:20;;;;;;;3.55;1.25;;;31.20;99.10;;;;;;5072304;28;20036;-58
2022/07/12 11:08:50;;;;;;;1.00;0.60;;;30.90;99.70;;;;;;5072205;28;20043;-58
2022/07/12 11:11:17;;;;;;;0.82;0.60;;;30.80;99.90;;;;;;5072816;28;20048;-58
2022/07/12 11:13:43;;;;;;;1.33;0.65;;;30.60;99.90;;;;;;5072678;28;20045;-58
2022/07/12 11:16:09;;;;;;;0.90;0.70;;;30.10;99.90;;;;;;5072618;28;20050;-58
2022/07/12 11:18:36;;;;;;;0.70;0.63;;;30.00;99.90;;;;;;5072263;28;20124;-58
2022/07/12 11:21:05;;;;;;;2.35;0.73;;;30.10;99.90;;;;;;5071985;28;20037;-57
2022/07/12 11:23:31;;;;;;;1.55;0.77;;;30.10;99.90;;;;;;5071991;28;20444;-58
2022/07/12 11:25:59;;;;;;;3.63;0.60;;;30.10;99.90;;;;;;5072308;28;20036;-58
2022/07/12 11:28:25;;;;;;;;;;;30.20;99.90;;;;;;5072066;28;20033;-59
2022/07/12 11:31:02;;;;;;;2.25;0.63;;;30.10;99.90;;;;;;5067417;28;19916;-58
2022/07/12 11:33:32;;;;;;;0.85;0.60;;;30.20;99.90;;;;;;5067767;28;20562;-58
2022/07/12 11:35:59;;;;;;;1.75;1.00;;;30.50;99.90;;;;;;5071000;28;20032;-59
2022/07/12 11:38:26;;;;;;;1.08;0.98;;;30.70;99.90;;;;;;5071755;28;20047;-58
2022/07/12 11:41:10;;;;;;;1.63;0.80;;;31.00;99.90;;;;;;5071989;28;20036;-59
2022/07/12 11:43:37;;;;;;;2.10;0.70;;;31.60;99.90;;;;;;5070449;28;20496;-58
2022/07/12 11:46:04;;;;;;;1.88;0.77;;;31.50;99.60;;;;;;5071537;28;20487;-59
2022/07/12 11:48:33;;;;;;;0.90;0.70;;;31.30;99.20;;;;;;5071655;28;20044;-59
2022/07/12 11:51:10;;;;;;;0.55;0.55;;;30.80;99.20;;;;;;5071819;28;20102;-58
2022/07/12 11:53:37;;;;;;;1.40;0.47;;;30.80;98.80;;;;;;5071659;28;20040;-58
2022/07/12 11:56:05;;;;;;;1.45;0.45;;;31.00;98.80;;;;;;5071643;28;20471;-57
2022/07/12 11:58:32;;;;;;;0.95;0.40;;;31.60;98.40;;;;;;5071931;28;20442;-57
2022/07/12 12:00:58;;;;;;;1.30;0.63;;;31.30;98.10;;;;;;5075856;28;20059;-57
2022/07/12 12:03:24;;;;;;;0.40;0.40;;;31.80;98.20;;;;;;5075589;28;20043;-59
2022/07/12 12:05:52;;;;;;;1.58;0.60;;;32.10;98.20;;;;;;5075598;28;20043;-57
2022/07/12 12:08:19;;;;;;;0.80;0.60;;;31.90;98.30;;;;;;5074069;28;20072;-57
2022/07/12 12:10:57;;;;;;;0.45;0.45;;;32.40;98.40;;;;;;5075209;28;20037;-58
2022/07/12 12:13:24;;;;;;;1.75;0.40;;;32.80;96.50;;;;;;5075381;28;20040;-58
2022/07/12 12:15:56;;;;;;;0.87;0.40;;;33.10;97.30;;;;;;5075486;28;20065;-58
2022/07/12 12:18:29;;;;;;;2.60;0.50;;;33.00;96.70;;;;;;5075106;28;20123;-58
2022/07/12 12:20:59;;;;;;;1.48;0.65;;;32.60;96.80;;;;;;5075139;28;20130;-58
2022/07/12 12:23:26;;;;;;;2.22;0.77;;;32.40;97.00;;;;;;5074942;28;20044;-59
2022/07/12 12:25:51;;;;;;;1.85;0.93;;;32.40;97.80;;;;;;5074970;28;20040;-58
2022/07/12 12:28:17;;;;;;;1.50;0.70;;;32.20;97.70;;;;;;5075349;28;20566;-60
2022/07/12 12:30:51;;;;;;;4.25;0.90;;;32.00;97.70;;;;;;5075535;28;20040;-59
2022/07/12 12:33:37;;;;;;;2.08;0.43;;;31.80;97.20;;;;;;5074952;28;20506;-59
2022/07/12 12:36:16;;;;;;;2.50;0.70;;;31.60;97.50;;;;;;5074732;28;20573;-57
2022/07/12 12:38:42;;;;;;;2.90;0.60;;;31.60;97.90;;;;;;5074762;28;20498;-59
2022/07/12 12:41:09;;;;;;;0.50;0.50;;;31.50;96.90;;;;;;5074878;28;20041;-59
2022/07/12 12:43:35;;;;;;;2.40;0.70;;;31.30;98.00;;;;;;5074825;28;20040;-59
2022/07/12 12:46:00;;;;;;;2.30;0.77;;;30.90;97.50;;;;;;5074946;28;20033;-59
2022/07/12 12:48:28;;;;;;;0.77;0.40;;;30.80;98.50;;;;;;5074650;28;20033;-59
2022/07/12 12:51:02;;;;;;;2.90;1.10;;;31.00;98.30;;;;;;5074635;28;20036;-59
2022/07/12 12:53:28;;;;;;;1.65;0.80;;;30.90;98.60;;;;;;5075049;28;20116;-57
2022/07/12 12:55:55;;;;;;;3.17;0.85;;;30.80;98.80;;;;;;5074766;28;20119;-58
2022/07/12 12:58:22;;;;;;;4.87;1.30;;;30.70;99.20;;;;;;5074499;28;20036;-59
2022/07/12 13:00:50;;;;;;;1.02;0.93;;;30.60;99.40;;;;;;5074526;28;20040;-59
2022/07/12 13:03:17;;;;;;;;;;;30.50;99.90;;;;;;5074889;28;20037;-58
2022/07/12 13:05:43;;;;;;;1.85;1.10;;;30.60;99.90;;;;;;5074395;28;19921;-59
2022/07/12 13:08:11;;;;;;;1.65;1.00;;;30.60;99.80;;;;;;5074842;28;20040;-59
2022/07/12 13:10:38;;;;;;;1.43;1.00;;;30.60;99.90;;;;;;5073874;28;20037;-59
2022/07/12 13:13:05;;;;;;;2.10;1.40;;;30.80;98.20;;;;;;5055921;28;20109;-59
2022/07/12 13:15:31;;;;;;;2.85;1.58;;;30.80;98.60;;;;;;5074189;28;20036;-58
2022/07/12 13:17:57;;;;;;;2.40;1.10;;;30.60;99.50;;;;;;5074098;28;20047;-59
2022/07/12 13:20:24;;;;;;;4.18;1.15;;;30.40;99.10;;;;;;5056422;28;20209;-59